sensor_id;sensor_type;location;lat;lon;timestamp;temperature;humidity
55785;DHT22;41709;52.536;5.688;2023-04-16T00:01:48;8.40;93.50
55785;DHT22;41709;52.536;5.688;2023-04-16T00:04:13;8.40;93.50
55785;DHT22;41709;52.536;5.688;2023-04-16T00:06:39;8.30;93.40
55785;DHT22;41709;52.536;5.688;2023-04-16T00:09:05;8.30;93.50
55785;DHT22;41709;52.536;5.688;2023-04-16T00:11:31;8.30;93.50
55785;DHT22;41709;52.536;5.688;2023-04-16T00:13:56;8.30;93.50
55785;DHT22;41709;52.536;5.688;2023-04-16T00:16:22;8.30;93.60
55785;DHT22;41709;52.536;5.688;2023-04-16T00:18:47;8.30;93.60
55785;DHT22;41709;52.536;5.688;2023-04-16T00:21:13;8.30;93.60
55785;DHT22;41709;52.536;5.688;2023-04-16T00:23:38;8.30;93.60
55785;DHT22;41709;52.536;5.688;2023-04-16T00:26:04;8.20;93.70
55785;DHT22;41709;52.536;5.688;2023-04-16T00:28:30;8.20;93.80
55785;DHT22;41709;52.536;5.688;2023-04-16T00:30:55;8.30;93.80
55785;DHT22;41709;52.536;5.688;2023-04-16T00:33:22;8.30;93.70
55785;DHT22;41709;52.536;5.688;2023-04-16T00:35:48;8.40;93.60
55785;DHT22;41709;52.536;5.688;2023-04-16T00:38:13;8.30;93.50
55785;DHT22;41709;52.536;5.688;2023-04-16T00:40:39;8.30;93.60
55785;DHT22;41709;52.536;5.688;2023-04-16T00:43:05;8.30;93.60
55785;DHT22;41709;52.536;5.688;2023-04-16T00:45:30;8.30;93.60
55785;DHT22;41709;52.536;5.688;2023-04-16T00:47:57;8.30;93.60
55785;DHT22;41709;52.536;5.688;2023-04-16T00:50:23;8.30;93.60
55785;DHT22;41709;52.536;5.688;2023-04-16T00:52:49;8.30;93.60
55785;DHT22;41709;52.536;5.688;2023-04-16T00:55:15;8.40;93.60
55785;DHT22;41709;52.536;5.688;2023-04-16T00:57:43;8.30;93.70
55785;DHT22;41709;52.536;5.688;2023-04-16T01:00:09;8.30;93.70
55785;DHT22;41709;52.536;5.688;2023-04-16T01:02:35;8.30;93.70
55785;DHT22;41709;52.536;5.688;2023-04-16T01:05:01;8.40;93.70
55785;DHT22;41709;52.536;5.688;2023-04-16T01:07:27;8.40;93.60
55785;DHT22;41709;52.536;5.688;2023-04-16T01:09:53;8.40;93.60
55785;DHT22;41709;52.536;5.688;2023-04-16T01:12:19;8.40;93.60
55785;DHT22;41709;52.536;5.688;2023-04-16T01:14:44;8.50;93.50
55785;DHT22;41709;52.536;5.688;2023-04-16T01:17:10;8.50;93.50
55785;DHT22;41709;52.536;5.688;2023-04-16T01:19:35;8.50;93.50
55785;DHT22;41709;52.536;5.688;2023-04-16T01:22:02;8.50;93.50
55785;DHT22;41709;52.536;5.688;2023-04-16T01:24:27;8.50;93.60
55785;DHT22;41709;52.536;5.688;2023-04-16T01:26:53;8.50;93.60
55785;DHT22;41709;52.536;5.688;2023-04-16T01:29:18;8.50;93.50
55785;DHT22;41709;52.536;5.688;2023-04-16T01:31:44;8.50;93.50
55785;DHT22;41709;52.536;5.688;2023-04-16T01:34:11;8.50;93.50
55785;DHT22;41709;52.536;5.688;2023-04-16T01:36:36;8.40;93.50
55785;DHT22;41709;52.536;5.688;2023-04-16T01:39:02;8.40;93.60
55785;DHT22;41709;52.536;5.688;2023-04-16T01:41:29;8.40;93.60
55785;DHT22;41709;52.536;5.688;2023-04-16T01:43:55;8.40;93.70
55785;DHT22;41709;52.536;5.688;2023-04-16T01:46:27;8.40;93.80
55785;DHT22;41709;52.536;5.688;2023-04-16T01:48:57;8.30;93.80
55785;DHT22;41709;52.536;5.688;2023-04-16T01:51:22;8.40;93.80
55785;DHT22;41709;52.536;5.688;2023-04-16T01:53:49;8.40;93.90
55785;DHT22;41709;52.536;5.688;2023-04-16T01:56:15;8.30;93.90
55785;DHT22;41709;52.536;5.688;2023-04-16T01:58:40;8.40;93.90
55785;DHT22;41709;52.536;5.688;2023-04-16T02:01:07;8.30;94.10
55785;DHT22;41709;52.536;5.688;2023-04-16T02:03:33;8.30;93.80
55785;DHT22;41709;52.536;5.688;2023-04-16T02:05:59;8.30;93.80
55785;DHT22;41709;52.536;5.688;2023-04-16T02:08:25;8.40;93.80
55785;DHT22;41709;52.536;5.688;2023-04-16T02:10:51;8.40;93.70
55785;DHT22;41709;52.536;5.688;2023-04-16T02:13:16;8.40;93.60
55785;DHT22;41709;52.536;5.688;2023-04-16T02:15:49;8.40;93.80
55785;DHT22;41709;52.536;5.688;2023-04-16T02:18:15;8.40;93.80
55785;DHT22;41709;52.536;5.688;2023-04-16T02:20:46;8.40;93.80
55785;DHT22;41709;52.536;5.688;2023-04-16T02:23:12;8.40;93.70
55785;DHT22;41709;52.536;5.688;2023-04-16T02:25:44;8.40;93.60
55785;DHT22;41709;52.536;5.688;2023-04-16T02:28:13;8.40;93.60
55785;DHT22;41709;52.536;5.688;2023-04-16T02:30:39;8.50;93.70
55785;DHT22;41709;52.536;5.688;2023-04-16T02:33:06;8.50;93.60
55785;DHT22;41709;52.536;5.688;2023-04-16T02:35:36;8.50;93.50
55785;DHT22;41709;52.536;5.688;2023-04-16T02:38:02;8.50;93.50
55785;DHT22;41709;52.536;5.688;2023-04-16T02:40:29;8.50;93.60
55785;DHT22;41709;52.536;5.688;2023-04-16T02:42:55;8.50;93.60
55785;DHT22;41709;52.536;5.688;2023-04-16T02:45:21;8.50;93.60
55785;DHT22;41709;52.536;5.688;2023-04-16T02:47:47;8.60;93.60
55785;DHT22;41709;52.536;5.688;2023-04-16T02:50:13;8.50;93.50
55785;DHT22;41709;52.536;5.688;2023-04-16T02:52:39;8.50;93.50
55785;DHT22;41709;52.536;5.688;2023-04-16T02:55:05;8.50;93.60
55785;DHT22;41709;52.536;5.688;2023-04-16T02:57:31;8.50;93.70
55785;DHT22;41709;52.536;5.688;2023-04-16T02:59:56;8.50;93.70
55785;DHT22;41709;52.536;5.688;2023-04-16T03:02:22;8.50;93.60
55785;DHT22;41709;52.536;5.688;2023-04-16T03:04:47;8.50;93.60
55785;DHT22;41709;52.536;5.688;2023-04-16T03:07:13;8.50;93.50
55785;DHT22;41709;52.536;5.688;2023-04-16T03:09:38;8.50;93.50
55785;DHT22;41709;52.536;5.688;2023-04-16T03:12:04;8.50;93.60
55785;DHT22;41709;52.536;5.688;2023-04-16T03:14:30;8.50;93.50
55785;DHT22;41709;52.536;5.688;2023-04-16T03:16:56;8.50;93.50
55785;DHT22;41709;52.536;5.688;2023-04-16T03:19:22;8.50;93.60
55785;DHT22;41709;52.536;5.688;2023-04-16T03:21:47;8.50;93.60
55785;DHT22;41709;52.536;5.688;2023-04-16T03:24:13;8.60;93.60
55785;DHT22;41709;52.536;5.688;2023-04-16T03:26:38;8.60;93.40
55785;DHT22;41709;52.536;5.688;2023-04-16T03:29:04;8.60;93.50
55785;DHT22;41709;52.536;5.688;2023-04-16T03:31:29;8.60;93.40
55785;DHT22;41709;52.536;5.688;2023-04-16T03:33:55;8.60;93.40
55785;DHT22;41709;52.536;5.688;2023-04-16T03:36:21;8.60;93.40
55785;DHT22;41709;52.536;5.688;2023-04-16T03:38:51;8.60;93.40
55785;DHT22;41709;52.536;5.688;2023-04-16T03:41:17;8.60;93.40
55785;DHT22;41709;52.536;5.688;2023-04-16T03:43:42;8.60;93.30
55785;DHT22;41709;52.536;5.688;2023-04-16T03:46:08;8.70;93.30
55785;DHT22;41709;52.536;5.688;2023-04-16T03:48:33;8.70;93.60
55785;DHT22;41709;52.536;5.688;2023-04-16T03:50:59;8.60;93.20
55785;DHT22;41709;52.536;5.688;2023-04-16T03:53:24;8.70;93.20
55785;DHT22;41709;52.536;5.688;2023-04-16T03:55:50;8.70;93.20
55785;DHT22;41709;52.536;5.688;2023-04-16T03:58:17;8.70;93.20
55785;DHT22;41709;52.536;5.688;2023-04-16T04:00:42;8.70;93.30
55785;DHT22;41709;52.536;5.688;2023-04-16T04:03:09;8.70;93.30
55785;DHT22;41709;52.536;5.688;2023-04-16T04:05:36;8.60;93.30
55785;DHT22;41709;52.536;5.688;2023-04-16T04:08:02;8.60;93.30
55785;DHT22;41709;52.536;5.688;2023-04-16T04:10:31;8.60;93.20
55785;DHT22;41709;52.536;5.688;2023-04-16T04:12:56;8.60;93.20
55785;DHT22;41709;52.536;5.688;2023-04-16T04:15:22;8.60;93.20
55785;DHT22;41709;52.536;5.688;2023-04-16T04:17:47;8.60;93.30
55785;DHT22;41709;52.536;5.688;2023-04-16T04:20:13;8.60;93.20
55785;DHT22;41709;52.536;5.688;2023-04-16T04:22:38;8.60;93.30
55785;DHT22;41709;52.536;5.688;2023-04-16T04:25:04;8.60;93.40
55785;DHT22;41709;52.536;5.688;2023-04-16T04:27:30;8.60;93.50
55785;DHT22;41709;52.536;5.688;2023-04-16T04:29:56;8.50;93.40
55785;DHT22;41709;52.536;5.688;2023-04-16T04:32:21;8.50;93.40
55785;DHT22;41709;52.536;5.688;2023-04-16T04:34:47;8.50;93.50
55785;DHT22;41709;52.536;5.688;2023-04-16T04:37:13;8.50;93.50
55785;DHT22;41709;52.536;5.688;2023-04-16T04:39:38;8.50;93.50
55785;DHT22;41709;52.536;5.688;2023-04-16T04:42:04;8.50;93.50
55785;DHT22;41709;52.536;5.688;2023-04-16T04:44:29;8.50;93.60
55785;DHT22;41709;52.536;5.688;2023-04-16T04:46:55;8.50;93.60
55785;DHT22;41709;52.536;5.688;2023-04-16T04:49:20;8.50;93.70
55785;DHT22;41709;52.536;5.688;2023-04-16T04:51:47;8.50;93.70
55785;DHT22;41709;52.536;5.688;2023-04-16T04:54:12;8.50;93.60
55785;DHT22;41709;52.536;5.688;2023-04-16T04:56:38;8.50;93.60
55785;DHT22;41709;52.536;5.688;2023-04-16T04:59:03;8.50;93.70
55785;DHT22;41709;52.536;5.688;2023-04-16T05:01:29;8.50;93.70
55785;DHT22;41709;52.536;5.688;2023-04-16T05:03:54;8.50;93.70
55785;DHT22;41709;52.536;5.688;2023-04-16T05:06:20;8.50;93.70
55785;DHT22;41709;52.536;5.688;2023-04-16T05:08:46;8.50;93.80
55785;DHT22;41709;52.536;5.688;2023-04-16T05:11:11;8.50;93.80
55785;DHT22;41709;52.536;5.688;2023-04-16T05:13:37;8.50;93.90
55785;DHT22;41709;52.536;5.688;2023-04-16T05:16:02;8.50;93.90
55785;DHT22;41709;52.536;5.688;2023-04-16T05:18:28;8.50;93.90
55785;DHT22;41709;52.536;5.688;2023-04-16T05:20:53;8.50;93.80
55785;DHT22;41709;52.536;5.688;2023-04-16T05:23:20;8.60;93.80
55785;DHT22;41709;52.536;5.688;2023-04-16T05:25:45;8.60;93.70
55785;DHT22;41709;52.536;5.688;2023-04-16T05:28:11;8.60;93.70
55785;DHT22;41709;52.536;5.688;2023-04-16T05:30:36;8.60;93.70
55785;DHT22;41709;52.536;5.688;2023-04-16T05:33:02;8.60;93.70
55785;DHT22;41709;52.536;5.688;2023-04-16T05:35:28;8.60;93.80
55785;DHT22;41709;52.536;5.688;2023-04-16T05:37:53;8.60;93.70
55785;DHT22;41709;52.536;5.688;2023-04-16T05:40:19;8.60;93.70
55785;DHT22;41709;52.536;5.688;2023-04-16T05:42:44;8.60;93.70
55785;DHT22;41709;52.536;5.688;2023-04-16T05:45:10;8.70;93.60
55785;DHT22;41709;52.536;5.688;2023-04-16T05:47:36;8.70;93.60
55785;DHT22;41709;52.536;5.688;2023-04-16T05:50:01;8.70;93.60
55785;DHT22;41709;52.536;5.688;2023-04-16T05:52:27;8.70;93.60
55785;DHT22;41709;52.536;5.688;2023-04-16T05:54:52;8.70;93.60
55785;DHT22;41709;52.536;5.688;2023-04-16T05:57:18;8.70;93.60
55785;DHT22;41709;52.536;5.688;2023-04-16T05:59:43;8.70;93.60
55785;DHT22;41709;52.536;5.688;2023-04-16T06:02:09;8.70;93.60
55785;DHT22;41709;52.536;5.688;2023-04-16T06:04:34;8.70;93.60
55785;DHT22;41709;52.536;5.688;2023-04-16T06:07:00;8.70;93.90
55785;DHT22;41709;52.536;5.688;2023-04-16T06:09:25;8.70;93.60
55785;DHT22;41709;52.536;5.688;2023-04-16T06:11:51;8.70;93.70
55785;DHT22;41709;52.536;5.688;2023-04-16T06:14:17;8.60;93.70
55785;DHT22;41709;52.536;5.688;2023-04-16T06:16:42;8.60;93.70
55785;DHT22;41709;52.536;5.688;2023-04-16T06:19:08;8.60;93.80
55785;DHT22;41709;52.536;5.688;2023-04-16T06:21:34;8.70;93.80
55785;DHT22;41709;52.536;5.688;2023-04-16T06:23:59;8.60;93.70
55785;DHT22;41709;52.536;5.688;2023-04-16T06:26:25;8.70;93.70
55785;DHT22;41709;52.536;5.688;2023-04-16T06:28:51;8.70;93.70
55785;DHT22;41709;52.536;5.688;2023-04-16T06:31:16;8.70;93.80
55785;DHT22;41709;52.536;5.688;2023-04-16T06:33:42;8.70;93.70
55785;DHT22;41709;52.536;5.688;2023-04-16T06:36:07;8.70;93.70
55785;DHT22;41709;52.536;5.688;2023-04-16T06:38:33;8.80;93.70
55785;DHT22;41709;52.536;5.688;2023-04-16T06:40:59;8.80;93.70
55785;DHT22;41709;52.536;5.688;2023-04-16T06:43:24;8.80;93.70
55785;DHT22;41709;52.536;5.688;2023-04-16T06:45:50;8.90;93.50
55785;DHT22;41709;52.536;5.688;2023-04-16T06:48:16;8.80;93.50
55785;DHT22;41709;52.536;5.688;2023-04-16T06:50:41;8.80;93.50
55785;DHT22;41709;52.536;5.688;2023-04-16T06:53:07;8.80;93.60
55785;DHT22;41709;52.536;5.688;2023-04-16T06:55:33;8.80;93.60
55785;DHT22;41709;52.536;5.688;2023-04-16T06:57:58;8.80;93.50
55785;DHT22;41709;52.536;5.688;2023-04-16T07:00:24;8.80;93.50
55785;DHT22;41709;52.536;5.688;2023-04-16T07:02:49;8.80;93.40
55785;DHT22;41709;52.536;5.688;2023-04-16T07:05:15;8.70;93.50
55785;DHT22;41709;52.536;5.688;2023-04-16T07:07:40;8.70;93.60
55785;DHT22;41709;52.536;5.688;2023-04-16T07:10:06;8.70;93.70
55785;DHT22;41709;52.536;5.688;2023-04-16T07:12:32;8.70;93.60
55785;DHT22;41709;52.536;5.688;2023-04-16T07:14:58;8.70;93.70
55785;DHT22;41709;52.536;5.688;2023-04-16T07:17:23;8.70;93.70
55785;DHT22;41709;52.536;5.688;2023-04-16T07:19:50;8.70;93.70
55785;DHT22;41709;52.536;5.688;2023-04-16T07:22:16;8.70;93.70
55785;DHT22;41709;52.536;5.688;2023-04-16T07:24:41;8.80;93.60
55785;DHT22;41709;52.536;5.688;2023-04-16T07:27:07;8.80;93.50
55785;DHT22;41709;52.536;5.688;2023-04-16T07:29:32;8.90;93.50
55785;DHT22;41709;52.536;5.688;2023-04-16T07:31:58;8.90;93.50
55785;DHT22;41709;52.536;5.688;2023-04-16T07:34:24;9.00;93.40
55785;DHT22;41709;52.536;5.688;2023-04-16T07:36:49;9.00;93.30
55785;DHT22;41709;52.536;5.688;2023-04-16T07:39:15;9.10;93.50
55785;DHT22;41709;52.536;5.688;2023-04-16T07:41:40;9.10;93.10
55785;DHT22;41709;52.536;5.688;2023-04-16T07:44:06;9.10;93.10
55785;DHT22;41709;52.536;5.688;2023-04-16T07:46:32;9.00;92.90
55785;DHT22;41709;52.536;5.688;2023-04-16T07:48:57;9.00;93.00
55785;DHT22;41709;52.536;5.688;2023-04-16T07:51:23;9.00;93.10
55785;DHT22;41709;52.536;5.688;2023-04-16T07:53:48;8.90;93.10
55785;DHT22;41709;52.536;5.688;2023-04-16T07:56:14;8.90;93.10
55785;DHT22;41709;52.536;5.688;2023-04-16T07:58:39;8.90;93.10
55785;DHT22;41709;52.536;5.688;2023-04-16T08:01:05;8.90;93.20
55785;DHT22;41709;52.536;5.688;2023-04-16T08:03:30;8.90;93.20
55785;DHT22;41709;52.536;5.688;2023-04-16T08:05:56;8.90;93.20
55785;DHT22;41709;52.536;5.688;2023-04-16T08:08:22;8.90;93.20
55785;DHT22;41709;52.536;5.688;2023-04-16T08:10:48;8.90;93.20
55785;DHT22;41709;52.536;5.688;2023-04-16T08:13:14;8.90;93.20
55785;DHT22;41709;52.536;5.688;2023-04-16T08:15:39;9.00;93.20
55785;DHT22;41709;52.536;5.688;2023-04-16T08:18:05;9.00;93.00
55785;DHT22;41709;52.536;5.688;2023-04-16T08:20:37;9.00;93.00
55785;DHT22;41709;52.536;5.688;2023-04-16T08:23:03;9.00;93.00
55785;DHT22;41709;52.536;5.688;2023-04-16T08:25:28;9.10;92.90
55785;DHT22;41709;52.536;5.688;2023-04-16T08:27:54;9.00;92.90
55785;DHT22;41709;52.536;5.688;2023-04-16T08:30:19;9.10;93.00
55785;DHT22;41709;52.536;5.688;2023-04-16T08:32:46;9.10;93.00
55785;DHT22;41709;52.536;5.688;2023-04-16T08:35:11;9.10;92.90
55785;DHT22;41709;52.536;5.688;2023-04-16T08:37:37;9.10;92.80
55785;DHT22;41709;52.536;5.688;2023-04-16T08:40:03;9.10;92.80
55785;DHT22;41709;52.536;5.688;2023-04-16T08:42:36;9.10;92.70
55785;DHT22;41709;52.536;5.688;2023-04-16T08:45:12;9.00;92.70
55785;DHT22;41709;52.536;5.688;2023-04-16T08:47:38;9.10;92.80
55785;DHT22;41709;52.536;5.688;2023-04-16T08:50:04;9.10;92.80
55785;DHT22;41709;52.536;5.688;2023-04-16T08:52:30;9.10;92.80
55785;DHT22;41709;52.536;5.688;2023-04-16T08:57:23;9.20;92.70
55785;DHT22;41709;52.536;5.688;2023-04-16T08:59:53;9.20;92.50
55785;DHT22;41709;52.536;5.688;2023-04-16T09:02:19;9.20;92.60
55785;DHT22;41709;52.536;5.688;2023-04-16T09:04:45;9.30;92.60
55785;DHT22;41709;52.536;5.688;2023-04-16T09:07:13;9.30;92.50
55785;DHT22;41709;52.536;5.688;2023-04-16T09:09:38;9.30;92.60
55785;DHT22;41709;52.536;5.688;2023-04-16T09:12:06;9.30;92.40
55785;DHT22;41709;52.536;5.688;2023-04-16T09:14:33;9.30;92.40
55785;DHT22;41709;52.536;5.688;2023-04-16T09:16:59;9.40;92.50
55785;DHT22;41709;52.536;5.688;2023-04-16T09:19:26;9.40;92.50
55785;DHT22;41709;52.536;5.688;2023-04-16T09:21:52;9.50;92.40
55785;DHT22;41709;52.536;5.688;2023-04-16T09:24:18;9.50;92.30
55785;DHT22;41709;52.536;5.688;2023-04-16T09:26:44;9.60;92.30
55785;DHT22;41709;52.536;5.688;2023-04-16T09:29:10;9.60;92.10
55785;DHT22;41709;52.536;5.688;2023-04-16T09:31:36;9.60;92.00
55785;DHT22;41709;52.536;5.688;2023-04-16T09:34:07;9.60;92.00
55785;DHT22;41709;52.536;5.688;2023-04-16T09:36:33;9.70;91.90
55785;DHT22;41709;52.536;5.688;2023-04-16T09:39:00;9.70;91.70
55785;DHT22;41709;52.536;5.688;2023-04-16T09:41:31;9.70;91.70
55785;DHT22;41709;52.536;5.688;2023-04-16T09:44:01;9.80;91.70
55785;DHT22;41709;52.536;5.688;2023-04-16T09:48:55;9.80;91.50
55785;DHT22;41709;52.536;5.688;2023-04-16T09:51:21;9.90;91.50
55785;DHT22;41709;52.536;5.688;2023-04-16T09:53:51;9.90;91.40
55785;DHT22;41709;52.536;5.688;2023-04-16T09:56:18;9.90;91.40
55785;DHT22;41709;52.536;5.688;2023-04-16T09:58:47;10.00;91.50
55785;DHT22;41709;52.536;5.688;2023-04-16T10:01:13;10.00;91.40
55785;DHT22;41709;52.536;5.688;2023-04-16T10:03:39;10.10;91.30
55785;DHT22;41709;52.536;5.688;2023-04-16T10:06:18;10.10;91.10
55785;DHT22;41709;52.536;5.688;2023-04-16T10:08:53;10.20;91.10
55785;DHT22;41709;52.536;5.688;2023-04-16T10:11:23;10.20;91.00
55785;DHT22;41709;52.536;5.688;2023-04-16T10:13:49;10.20;90.90
55785;DHT22;41709;52.536;5.688;2023-04-16T10:16:14;10.20;90.90
55785;DHT22;41709;52.536;5.688;2023-04-16T10:18:42;10.20;90.90
55785;DHT22;41709;52.536;5.688;2023-04-16T10:21:08;10.20;91.00
55785;DHT22;41709;52.536;5.688;2023-04-16T10:23:38;10.20;91.00
55785;DHT22;41709;52.536;5.688;2023-04-16T10:26:04;10.10;91.00
55785;DHT22;41709;52.536;5.688;2023-04-16T10:28:30;10.20;91.10
55785;DHT22;41709;52.536;5.688;2023-04-16T10:30:56;10.20;91.10
55785;DHT22;41709;52.536;5.688;2023-04-16T10:33:28;10.20;91.10
55785;DHT22;41709;52.536;5.688;2023-04-16T10:36:14;10.20;91.00
55785;DHT22;41709;52.536;5.688;2023-04-16T10:38:48;10.30;90.90
55785;DHT22;41709;52.536;5.688;2023-04-16T10:41:14;10.30;90.70
55785;DHT22;41709;52.536;5.688;2023-04-16T10:43:42;10.40;90.80
55785;DHT22;41709;52.536;5.688;2023-04-16T10:46:47;10.50;90.70
55785;DHT22;41709;52.536;5.688;2023-04-16T10:54:30;10.50;90.60
55785;DHT22;41709;52.536;5.688;2023-04-16T10:57:02;10.50;90.60
55785;DHT22;41709;52.536;5.688;2023-04-16T10:59:33;10.60;90.80
55785;DHT22;41709;52.536;5.688;2023-04-16T11:02:01;10.50;90.70
55785;DHT22;41709;52.536;5.688;2023-04-16T11:04:35;10.60;90.50
55785;DHT22;41709;52.536;5.688;2023-04-16T11:09:57;10.70;90.30
55785;DHT22;41709;52.536;5.688;2023-04-16T11:12:37;10.70;90.30
55785;DHT22;41709;52.536;5.688;2023-04-16T11:15:03;10.70;90.20
55785;DHT22;41709;52.536;5.688;2023-04-16T11:17:43;10.80;90.00
55785;DHT22;41709;52.536;5.688;2023-04-16T11:20:14;10.80;90.10
55785;DHT22;41709;52.536;5.688;2023-04-16T11:22:41;10.70;90.10
55785;DHT22;41709;52.536;5.688;2023-04-16T11:25:07;10.70;90.10
55785;DHT22;41709;52.536;5.688;2023-04-16T11:27:33;10.60;90.20
55785;DHT22;41709;52.536;5.688;2023-04-16T11:30:07;10.60;90.30
55785;DHT22;41709;52.536;5.688;2023-04-16T11:32:35;10.60;90.20
55785;DHT22;41709;52.536;5.688;2023-04-16T11:35:02;10.70;90.00
55785;DHT22;41709;52.536;5.688;2023-04-16T11:37:36;10.70;89.90
55785;DHT22;41709;52.536;5.688;2023-04-16T11:40:03;10.60;90.00
55785;DHT22;41709;52.536;5.688;2023-04-16T11:42:31;10.60;90.10
55785;DHT22;41709;52.536;5.688;2023-04-16T11:44:58;10.60;90.30
55785;DHT22;41709;52.536;5.688;2023-04-16T11:47:27;10.60;90.00
55785;DHT22;41709;52.536;5.688;2023-04-16T11:49:54;10.60;90.00
55785;DHT22;41709;52.536;5.688;2023-04-16T11:52:33;10.40;90.40
55785;DHT22;41709;52.536;5.688;2023-04-16T11:55:01;10.30;90.60
55785;DHT22;41709;52.536;5.688;2023-04-16T11:57:28;10.30;90.70
55785;DHT22;41709;52.536;5.688;2023-04-16T11:59:56;10.30;90.90
55785;DHT22;41709;52.536;5.688;2023-04-16T12:02:39;10.40;90.90
55785;DHT22;41709;52.536;5.688;2023-04-16T12:05:07;10.50;90.50
55785;DHT22;41709;52.536;5.688;2023-04-16T12:07:49;10.50;90.50
55785;DHT22;41709;52.536;5.688;2023-04-16T12:10:15;10.50;90.60
55785;DHT22;41709;52.536;5.688;2023-04-16T12:12:40;10.50;90.60
55785;DHT22;41709;52.536;5.688;2023-04-16T12:15:06;10.50;90.70
55785;DHT22;41709;52.536;5.688;2023-04-16T12:17:34;10.60;90.60
55785;DHT22;41709;52.536;5.688;2023-04-16T12:20:02;10.60;90.30
55785;DHT22;41709;52.536;5.688;2023-04-16T12:22:32;10.60;90.30
55785;DHT22;41709;52.536;5.688;2023-04-16T12:25:00;10.60;90.40
55785;DHT22;41709;52.536;5.688;2023-04-16T12:27:40;10.60;90.50
55785;DHT22;41709;52.536;5.688;2023-04-16T12:30:07;10.60;90.40
55785;DHT22;41709;52.536;5.688;2023-04-16T12:32:32;10.60;90.40
55785;DHT22;41709;52.536;5.688;2023-04-16T12:34:58;10.60;90.30
55785;DHT22;41709;52.536;5.688;2023-04-16T12:37:24;10.60;90.50
55785;DHT22;41709;52.536;5.688;2023-04-16T12:39:49;10.60;90.40
55785;DHT22;41709;52.536;5.688;2023-04-16T12:42:15;10.70;90.50
55785;DHT22;41709;52.536;5.688;2023-04-16T12:44:40;10.70;90.50
55785;DHT22;41709;52.536;5.688;2023-04-16T12:47:06;10.70;90.20
55785;DHT22;41709;52.536;5.688;2023-04-16T12:49:31;10.70;90.40
55785;DHT22;41709;52.536;5.688;2023-04-16T12:51:57;10.70;90.50
55785;DHT22;41709;52.536;5.688;2023-04-16T12:54:23;10.80;90.40
55785;DHT22;41709;52.536;5.688;2023-04-16T12:56:53;10.80;90.40
55785;DHT22;41709;52.536;5.688;2023-04-16T12:59:18;10.80;90.50
55785;DHT22;41709;52.536;5.688;2023-04-16T13:01:44;10.80;90.40
55785;DHT22;41709;52.536;5.688;2023-04-16T13:04:10;10.90;90.40
55785;DHT22;41709;52.536;5.688;2023-04-16T13:06:35;10.80;90.50
55785;DHT22;41709;52.536;5.688;2023-04-16T13:09:02;10.80;90.60
55785;DHT22;41709;52.536;5.688;2023-04-16T13:11:28;10.80;90.40
55785;DHT22;41709;52.536;5.688;2023-04-16T13:13:54;10.90;90.50
55785;DHT22;41709;52.536;5.688;2023-04-16T13:16:20;10.90;90.20
55785;DHT22;41709;52.536;5.688;2023-04-16T13:18:45;11.00;90.00
55785;DHT22;41709;52.536;5.688;2023-04-16T13:21:11;11.00;90.20
55785;DHT22;41709;52.536;5.688;2023-04-16T13:23:36;11.10;89.80
55785;DHT22;41709;52.536;5.688;2023-04-16T13:26:02;11.00;90.00
55785;DHT22;41709;52.536;5.688;2023-04-16T13:28:28;10.90;89.90
55785;DHT22;41709;52.536;5.688;2023-04-16T13:30:53;11.00;89.80
55785;DHT22;41709;52.536;5.688;2023-04-16T13:33:19;11.00;89.60
55785;DHT22;41709;52.536;5.688;2023-04-16T13:35:47;11.10;90.00
55785;DHT22;41709;52.536;5.688;2023-04-16T13:38:12;11.10;90.00
55785;DHT22;41709;52.536;5.688;2023-04-16T13:40:38;11.20;89.60
55785;DHT22;41709;52.536;5.688;2023-04-16T13:43:04;11.20;89.60
55785;DHT22;41709;52.536;5.688;2023-04-16T13:45:29;11.20;89.20
55785;DHT22;41709;52.536;5.688;2023-04-16T13:47:55;11.30;88.90
55785;DHT22;41709;52.536;5.688;2023-04-16T13:50:20;11.40;88.30
55785;DHT22;41709;52.536;5.688;2023-04-16T13:52:46;11.40;88.20
55785;DHT22;41709;52.536;5.688;2023-04-16T13:55:11;11.40;88.10
55785;DHT22;41709;52.536;5.688;2023-04-16T13:57:39;11.40;88.20
55785;DHT22;41709;52.536;5.688;2023-04-16T14:00:06;11.30;88.60
55785;DHT22;41709;52.536;5.688;2023-04-16T14:02:32;11.30;88.50
55785;DHT22;41709;52.536;5.688;2023-04-16T14:04:57;11.20;88.40
55785;DHT22;41709;52.536;5.688;2023-04-16T14:07:23;11.20;88.70
55785;DHT22;41709;52.536;5.688;2023-04-16T14:09:52;11.20;88.80
55785;DHT22;41709;52.536;5.688;2023-04-16T14:12:18;11.20;88.90
55785;DHT22;41709;52.536;5.688;2023-04-16T14:14:43;11.20;88.70
55785;DHT22;41709;52.536;5.688;2023-04-16T14:17:09;11.30;88.60
55785;DHT22;41709;52.536;5.688;2023-04-16T14:19:35;11.40;88.00
55785;DHT22;41709;52.536;5.688;2023-04-16T14:22:00;11.20;88.50
55785;DHT22;41709;52.536;5.688;2023-04-16T14:24:26;11.20;88.20
55785;DHT22;41709;52.536;5.688;2023-04-16T14:26:51;11.30;87.90
55785;DHT22;41709;52.536;5.688;2023-04-16T14:29:17;11.20;88.10
55785;DHT22;41709;52.536;5.688;2023-04-16T14:31:42;11.30;88.00
55785;DHT22;41709;52.536;5.688;2023-04-16T14:34:08;11.30;87.80
55785;DHT22;41709;52.536;5.688;2023-04-16T14:36:35;11.20;88.10
55785;DHT22;41709;52.536;5.688;2023-04-16T14:39:01;11.20;88.00
55785;DHT22;41709;52.536;5.688;2023-04-16T14:41:27;11.20;88.00
55785;DHT22;41709;52.536;5.688;2023-04-16T14:43:52;11.20;88.10
55785;DHT22;41709;52.536;5.688;2023-04-16T14:46:18;11.20;88.10
55785;DHT22;41709;52.536;5.688;2023-04-16T14:48:44;11.30;88.00
55785;DHT22;41709;52.536;5.688;2023-04-16T14:51:09;11.20;88.20
55785;DHT22;41709;52.536;5.688;2023-04-16T14:53:38;11.20;88.70
55785;DHT22;41709;52.536;5.688;2023-04-16T14:56:04;11.20;88.50
55785;DHT22;41709;52.536;5.688;2023-04-16T14:58:30;11.30;88.00
55785;DHT22;41709;52.536;5.688;2023-04-16T15:00:57;11.30;88.20
55785;DHT22;41709;52.536;5.688;2023-04-16T15:03:23;11.30;88.50
55785;DHT22;41709;52.536;5.688;2023-04-16T15:05:49;11.30;88.30
55785;DHT22;41709;52.536;5.688;2023-04-16T15:08:23;11.20;88.70
55785;DHT22;41709;52.536;5.688;2023-04-16T15:10:49;11.20;88.50
55785;DHT22;41709;52.536;5.688;2023-04-16T15:13:15;11.20;88.30
55785;DHT22;41709;52.536;5.688;2023-04-16T15:15:40;11.20;88.50
55785;DHT22;41709;52.536;5.688;2023-04-16T15:18:06;11.30;88.30
55785;DHT22;41709;52.536;5.688;2023-04-16T15:20:32;11.40;88.20
55785;DHT22;41709;52.536;5.688;2023-04-16T15:22:57;11.20;88.40
55785;DHT22;41709;52.536;5.688;2023-04-16T15:25:23;11.10;88.90
55785;DHT22;41709;52.536;5.688;2023-04-16T15:27:50;11.20;88.50
55785;DHT22;41709;52.536;5.688;2023-04-16T15:30:16;11.20;88.70
55785;DHT22;41709;52.536;5.688;2023-04-16T15:32:42;11.20;88.10
55785;DHT22;41709;52.536;5.688;2023-04-16T15:35:08;11.20;88.00
55785;DHT22;41709;52.536;5.688;2023-04-16T15:37:34;11.30;88.10
55785;DHT22;41709;52.536;5.688;2023-04-16T15:40:00;11.30;87.80
55785;DHT22;41709;52.536;5.688;2023-04-16T15:42:26;11.30;87.90
55785;DHT22;41709;52.536;5.688;2023-04-16T15:44:51;11.30;87.50
55785;DHT22;41709;52.536;5.688;2023-04-16T15:47:17;11.30;86.90
55785;DHT22;41709;52.536;5.688;2023-04-16T15:49:42;11.30;87.20